createdAt,value
2023-05-10T00:00:21.555Z,5.38
2023-05-10T00:02:48.376Z,6.05
2023-05-10T00:05:15.336Z,6.38
2023-05-10T00:07:42.048Z,6.80
2023-05-10T00:10:08.940Z,6.72
2023-05-10T00:12:35.590Z,7.03
2023-05-10T00:15:02.567Z,6.47
2023-05-10T00:17:29.402Z,6.55
2023-05-10T00:19:56.116Z,8.15
2023-05-10T05:49:00.132Z,6.93
2023-05-10T05:51:26.874Z,7.18
2023-05-10T05:53:53.986Z,7.28
2023-05-10T05:56:25.293Z,7.80
2023-05-10T05:58:52.323Z,7.95
2023-05-10T06:01:18.933Z,7.22
2023-05-10T06:03:45.710Z,7.65
2023-05-10T06:06:12.363Z,7.03
2023-05-10T06:08:39.001Z,6.05
2023-05-10T06:11:05.565Z,7.40
2023-05-10T06:13:33.587Z,6.88
2023-05-10T06:16:00.564Z,6.55
2023-05-10T06:18:27.258Z,6.25
2023-05-10T06:20:53.821Z,6.07
2023-05-10T06:23:20.387Z,6.18
2023-05-10T06:25:47.085Z,5.97
2023-05-10T06:28:13.658Z,5.07
2023-05-10T06:30:40.321Z,5.50
2023-05-10T06:33:06.968Z,4.75
2023-05-10T06:35:34.539Z,4.60
2023-05-10T06:38:01.206Z,5.18
2023-05-10T06:40:28.541Z,4.82
2023-05-10T06:42:55.159Z,5.38
2023-05-10T06:45:21.748Z,5.30
2023-05-10T06:47:48.337Z,5.38
2023-05-10T06:50:15.013Z,5.80
2023-05-10T06:52:41.661Z,5.25
2023-05-10T06:55:09.801Z,6.18
2023-05-10T06:57:36.504Z,4.93
2023-05-10T07:00:05.268Z,5.78
2023-05-10T07:02:32.054Z,5.03
2023-05-10T07:05:01.651Z,4.95
2023-05-10T07:07:29.914Z,4.90
2023-05-10T07:09:57.607Z,5.05
2023-05-10T07:12:24.976Z,4.85
2023-05-10T07:14:51.622Z,4.00
2023-05-10T07:17:18.249Z,4.68
2023-05-10T07:19:45.086Z,4.82
2023-05-10T07:22:11.669Z,5.05
2023-05-10T07:24:38.315Z,5.57
2023-05-10T07:27:05.475Z,5.43
2023-05-10T07:29:32.089Z,4.75
2023-05-10T07:31:59.045Z,5.25
2023-05-10T07:34:26.590Z,5.60
2023-05-10T07:36:54.142Z,5.20
2023-05-10T07:39:27.264Z,5.37
2023-05-10T07:41:55.639Z,5.28
2023-05-10T07:44:22.760Z,5.43
2023-05-10T07:46:50.173Z,5.93
2023-05-10T07:49:17.486Z,5.72
2023-05-10T07:51:44.707Z,5.70
2023-05-10T07:54:11.865Z,6.32
2023-05-10T07:56:38.816Z,7.20
2023-05-10T07:59:08.923Z,7.35
2023-05-10T08:01:36.984Z,7.75
2023-05-10T08:04:03.793Z,8.30
2023-05-10T08:06:31.132Z,7.32
2023-05-10T08:08:58.082Z,8.35
2023-05-10T08:11:24.766Z,8.00
2023-05-10T08:13:52.164Z,10.55
2023-05-10T08:16:18.978Z,9.55
2023-05-10T08:18:47.746Z,8.75
2023-05-10T08:21:15.389Z,9.45
2023-05-10T08:23:42.037Z,8.80
2023-05-10T08:26:08.685Z,7.10
2023-05-10T08:28:35.261Z,8.88
2023-05-10T08:31:01.886Z,9.45
2023-05-10T08:33:28.558Z,8.43
2023-05-10T08:35:55.169Z,7.65
2023-05-10T08:38:21.783Z,8.52
2023-05-10T08:40:50.368Z,9.60
2023-05-10T08:45:48.283Z,9.98
2023-05-10T08:48:15.118Z,11.88
2023-05-10T08:50:42.944Z,12.18
2023-05-10T08:53:14.096Z,12.45
2023-05-10T08:55:43.110Z,11.02
2023-05-10T08:58:10.805Z,10.95
2023-05-10T09:00:38.386Z,11.07
2023-05-10T09:03:05.824Z,11.93
2023-05-10T09:05:32.957Z,11.30
2023-05-10T09:08:02.331Z,11.93
2023-05-10T09:10:29.328Z,11.18
2023-05-10T09:12:59.330Z,11.60
2023-05-10T09:15:26.933Z,10.75
2023-05-10T09:17:53.824Z,10.30
2023-05-10T09:20:20.768Z,10.45
2023-05-10T09:22:47.399Z,10.95
2023-05-10T09:25:17.983Z,13.75
2023-05-10T09:27:48.858Z,12.98
2023-05-10T09:30:24.223Z,11.88
2023-05-10T09:32:51.520Z,9.35
2023-05-10T09:35:20.874Z,11.23
2023-05-10T09:37:49.867Z,10.75
2023-05-10T09:40:18.328Z,11.02
2023-05-10T09:45:23.528Z,10.60
2023-05-10T09:47:50.562Z,11.30
2023-05-10T09:50:18.088Z,11.60
2023-05-10T09:52:51.154Z,10.80
2023-05-10T09:55:19.921Z,10.88
2023-05-10T09:57:48.769Z,9.88
2023-05-10T10:00:20.200Z,10.40
2023-05-10T10:02:48.837Z,9.27
2023-05-10T10:05:16.140Z,8.00
2023-05-10T10:07:43.277Z,9.05
2023-05-10T10:10:13.279Z,7.78
2023-05-10T10:12:41.765Z,10.43
2023-05-10T10:17:39.367Z,8.93
2023-05-10T10:20:06.855Z,10.07
2023-05-10T10:22:33.674Z,9.30
2023-05-10T10:25:00.518Z,8.27
2023-05-10T10:27:43.316Z,9.30
2023-05-10T10:30:38.061Z,10.50
2023-05-10T10:33:10.372Z,8.95
2023-05-10T10:35:40.456Z,9.30
2023-05-10T10:38:09.496Z,8.95
2023-05-10T10:40:36.291Z,8.68
2023-05-10T10:43:22.697Z,9.35
2023-05-10T11:00:22.305Z,10.43
2023-05-10T11:03:19.573Z,10.68
2023-05-10T11:05:50.109Z,10.27
2023-05-10T11:08:40.705Z,10.00
2023-05-10T11:11:08.310Z,9.38
2023-05-10T11:13:36.212Z,9.90
2023-05-10T11:16:24.540Z,10.35
2023-05-10T11:19:04.356Z,11.05
2023-05-10T11:21:32.063Z,10.52
2023-05-10T11:24:00.238Z,10.45
2023-05-10T11:26:32.249Z,9.98
2023-05-10T11:29:02.979Z,10.25
2023-05-10T11:31:30.370Z,9.82
2023-05-10T11:33:59.245Z,10.17
2023-05-10T11:36:30.742Z,10.27
2023-05-10T11:38:57.964Z,9.48
2023-05-10T11:41:26.146Z,9.98
2023-05-10T11:43:54.692Z,8.27
2023-05-10T11:48:54.416Z,7.28
2023-05-10T11:51:25.044Z,8.25
2023-05-10T11:53:56.032Z,8.45
2023-05-10T11:56:22.855Z,8.98
2023-05-10T11:58:58.041Z,7.88
2023-05-10T12:01:26.031Z,8.90
2023-05-10T12:03:54.408Z,9.05
2023-05-10T12:08:49.280Z,8.07
2023-05-10T12:11:18.745Z,8.02
2023-05-10T12:13:48.824Z,8.18
2023-05-10T12:16:18.252Z,7.65
2023-05-10T12:18:45.719Z,8.35
2023-05-10T12:21:12.950Z,8.68
2023-05-10T12:23:40.324Z,8.30
2023-05-10T12:26:07.487Z,8.27
2023-05-10T12:28:34.396Z,7.45
2023-05-10T12:31:01.151Z,7.03
2023-05-10T12:33:27.745Z,7.82
2023-05-10T12:35:55.999Z,8.40
2023-05-10T12:38:45.481Z,8.15
2023-05-10T12:41:18.732Z,7.38
2023-05-10T12:43:49.211Z,6.82
2023-05-10T12:46:18.262Z,7.50
2023-05-10T12:48:47.300Z,7.45
2023-05-10T12:51:16.708Z,6.88
2023-05-10T12:53:46.106Z,6.57
2023-05-10T12:56:13.916Z,6.13
2023-05-10T12:58:40.522Z,5.75
2023-05-10T13:01:07.210Z,6.13
2023-05-10T13:03:33.865Z,6.75
2023-05-10T13:06:00.548Z,7.07
2023-05-10T13:08:27.253Z,6.70
2023-05-10T13:10:54.245Z,8.00
2023-05-10T13:13:20.941Z,6.75
2023-05-10T13:15:47.501Z,7.25
2023-05-10T13:18:14.562Z,6.47
2023-05-10T13:20:41.316Z,7.28
2023-05-10T13:23:07.892Z,7.50
2023-05-10T13:25:35.412Z,6.88
2023-05-10T13:28:02.235Z,6.85
2023-05-10T13:30:29.821Z,6.63
2023-05-10T13:32:56.481Z,6.23
2023-05-10T13:35:23.198Z,7.47
2023-05-10T13:37:49.940Z,6.88
2023-05-10T13:40:17.921Z,6.53
2023-05-10T13:42:44.784Z,7.13
2023-05-10T13:45:13.244Z,6.50
2023-05-10T13:47:39.993Z,5.55
2023-05-10T13:50:07.640Z,5.78
2023-05-10T13:52:34.406Z,6.50
2023-05-10T13:55:01.120Z,6.57
2023-05-10T13:57:27.760Z,5.93
2023-05-10T13:59:55.983Z,5.15
2023-05-10T14:02:24.283Z,5.03
2023-05-10T14:04:50.916Z,5.35
2023-05-10T14:07:17.483Z,7.43
2023-05-10T14:09:44.203Z,6.93
2023-05-10T14:12:10.741Z,6.90
2023-05-10T14:14:37.350Z,8.88
2023-05-10T14:17:03.934Z,9.23
2023-05-10T14:19:33.506Z,9.82
2023-05-10T14:22:00.150Z,9.95
2023-05-10T14:24:26.816Z,9.02
2023-05-10T14:26:54.995Z,9.70
2023-05-10T14:29:22.125Z,9.07
2023-05-10T14:31:48.868Z,8.85
2023-05-10T14:34:15.778Z,8.70
2023-05-10T14:36:42.377Z,9.23
2023-05-10T14:39:10.910Z,9.88
2023-05-10T14:44:04.753Z,9.13
2023-05-10T14:46:31.377Z,8.77
2023-05-10T14:48:58.064Z,8.93
2023-05-10T14:51:24.617Z,8.20
2023-05-10T14:53:51.253Z,8.95
2023-05-10T14:56:17.832Z,9.48
2023-05-10T14:58:44.448Z,8.73
2023-05-10T15:01:11.043Z,7.95
2023-05-10T15:03:38.560Z,8.23
2023-05-10T15:06:06.107Z,8.70
2023-05-10T15:08:32.654Z,8.23
2023-05-10T15:10:59.218Z,8.68
2023-05-10T15:13:25.828Z,8.65
2023-05-10T15:15:52.503Z,9.00
2023-05-10T15:18:23.780Z,8.98
2023-05-10T15:20:50.544Z,7.50
2023-05-10T15:23:17.123Z,8.00
2023-05-10T15:25:43.752Z,8.15
2023-05-10T15:28:10.376Z,6.75
2023-05-10T15:30:36.949Z,9.35
2023-05-10T15:33:03.549Z,8.80
2023-05-10T15:35:30.182Z,7.78
2023-05-10T15:37:56.772Z,7.63
2023-05-10T15:40:23.943Z,7.90
2023-05-10T15:42:50.476Z,7.40
2023-05-10T15:45:17.673Z,7.97
2023-05-10T15:47:45.260Z,5.82
2023-05-10T15:50:12.610Z,7.32
2023-05-10T15:52:39.266Z,6.68
2023-05-10T15:55:12.723Z,7.53
2023-05-10T15:57:41.320Z,6.32
2023-05-10T16:00:09.734Z,7.97
2023-05-10T16:02:36.615Z,8.60
2023-05-10T16:05:04.060Z,8.13
2023-05-10T16:07:30.634Z,6.43
2023-05-10T16:09:57.228Z,6.68
2023-05-10T16:12:23.885Z,5.45
2023-05-10T16:14:50.441Z,5.47
2023-05-10T16:17:17.209Z,6.47
2023-05-10T16:19:43.913Z,7.93
2023-05-10T16:22:10.467Z,6.93
2023-05-10T16:24:37.040Z,7.80
2023-05-10T16:27:03.665Z,7.53
2023-05-10T16:29:30.229Z,7.20
2023-05-10T16:31:56.837Z,8.18
2023-05-10T16:34:24.513Z,7.65
2023-05-10T16:36:51.681Z,6.50
2023-05-10T16:39:18.260Z,7.07
2023-05-10T16:41:45.174Z,7.28
2023-05-10T16:44:11.739Z,7.00
2023-05-10T16:46:38.373Z,6.72
2023-05-10T16:49:04.949Z,7.93
2023-05-10T16:51:31.562Z,7.68
2023-05-10T16:53:58.341Z,7.82
2023-05-10T16:56:24.963Z,8.38
2023-05-10T16:58:51.718Z,8.30
2023-05-10T17:01:18.527Z,8.30
2023-05-10T17:03:45.352Z,7.80
2023-05-10T17:06:12.159Z,7.43
2023-05-10T17:08:38.737Z,6.75
2023-05-10T17:11:05.491Z,5.93
2023-05-10T17:13:32.206Z,5.53
2023-05-10T17:15:59.038Z,6.20
2023-05-10T17:18:26.748Z,5.88
2023-05-10T17:20:53.489Z,7.33
2023-05-10T17:23:20.280Z,6.97
2023-05-10T17:25:47.548Z,7.28
2023-05-10T17:28:14.150Z,7.60
2023-05-10T17:30:40.771Z,7.60
2023-05-10T17:33:07.368Z,7.15
2023-05-10T17:35:34.209Z,6.82
2023-05-10T17:38:00.949Z,7.38
2023-05-10T17:40:27.665Z,7.72
2023-05-10T17:42:54.319Z,7.10
2023-05-10T17:45:20.969Z,6.85
2023-05-10T17:47:47.586Z,6.65
2023-05-10T17:50:14.221Z,6.40
2023-05-10T17:52:40.884Z,6.32
2023-05-10T17:55:07.820Z,6.80
2023-05-10T17:57:34.828Z,5.78
2023-05-10T18:00:03.925Z,5.80
2023-05-10T18:02:30.568Z,5.72
2023-05-10T18:04:59.939Z,5.10
2023-05-10T18:07:27.177Z,4.68
2023-05-10T18:09:53.803Z,4.63
2023-05-10T18:12:20.367Z,5.50
2023-05-10T18:14:46.957Z,5.32
2023-05-10T18:17:13.597Z,4.78
2023-05-10T18:19:40.467Z,6.00
2023-05-10T18:22:11.143Z,7.32
2023-05-10T18:24:39.576Z,6.30
2023-05-10T18:27:08.408Z,8.32
2023-05-10T18:29:35.232Z,7.68
2023-05-10T18:32:01.865Z,6.93
2023-05-10T18:34:28.910Z,7.43
2023-05-10T18:36:55.872Z,6.90
2023-05-10T18:39:22.447Z,8.38
2023-05-10T18:41:50.239Z,7.20
2023-05-10T18:44:16.979Z,5.72
2023-05-10T18:46:43.683Z,6.10
2023-05-10T18:49:10.330Z,6.10
2023-05-10T18:51:36.907Z,6.72
2023-05-10T18:54:03.657Z,6.47
2023-05-10T18:56:30.429Z,6.20
2023-05-10T18:58:57.083Z,6.53
2023-05-10T19:01:23.729Z,5.60
2023-05-10T19:03:50.397Z,6.18
2023-05-10T19:06:17.013Z,5.32
2023-05-10T19:08:43.691Z,6.00
2023-05-10T19:11:10.478Z,5.88
2023-05-10T19:13:37.188Z,5.63
2023-05-10T19:16:14.062Z,5.40
2023-05-10T19:18:42.757Z,5.13
2023-05-10T19:21:11.438Z,5.35
2023-05-10T19:23:40.114Z,5.80
2023-05-10T19:26:06.785Z,5.20
2023-05-10T19:28:33.333Z,8.00
2023-05-10T19:31:00.055Z,6.68
2023-05-10T19:33:26.676Z,6.57
2023-05-10T19:35:53.623Z,6.50
2023-05-10T19:38:22.129Z,5.22
2023-05-10T19:43:17.244Z,6.70
2023-05-10T19:45:44.171Z,5.85
2023-05-10T19:48:11.107Z,6.22
2023-05-10T19:50:38.599Z,6.45
2023-05-10T19:53:05.229Z,6.72
2023-05-10T19:55:32.635Z,6.00
2023-05-10T19:58:02.392Z,6.22
2023-05-10T20:00:29.254Z,5.97
2023-05-10T20:02:56.008Z,6.22
2023-05-10T20:05:22.752Z,6.28
2023-05-10T20:07:49.587Z,6.03
2023-05-10T20:10:17.123Z,6.28
2023-05-10T20:12:54.456Z,5.63
2023-05-10T20:15:22.937Z,6.22
2023-05-10T20:20:18.173Z,5.47
2023-05-10T20:22:44.960Z,5.40
2023-05-10T20:25:11.940Z,5.85
2023-05-10T20:27:38.719Z,5.50
2023-05-10T20:30:06.229Z,5.57
2023-05-10T20:32:33.002Z,4.47
2023-05-10T20:34:59.641Z,5.10
2023-05-10T20:37:28.068Z,4.72
2023-05-10T20:39:54.930Z,4.82
2023-05-10T20:42:22.163Z,4.28
2023-05-10T20:44:48.769Z,4.47
2023-05-10T20:47:15.863Z,4.30
2023-05-10T20:49:42.768Z,4.47
2023-05-10T20:52:09.869Z,4.25
2023-05-10T20:54:36.555Z,4.18
2023-05-10T20:57:03.180Z,4.13
2023-05-10T20:59:29.857Z,4.35
2023-05-10T21:01:57.557Z,3.88
2023-05-10T21:04:25.461Z,4.55
2023-05-10T21:06:53.076Z,4.55
2023-05-10T21:09:19.888Z,4.07
2023-05-10T21:11:46.639Z,4.30
2023-05-10T21:14:13.361Z,5.20
2023-05-10T21:16:40.161Z,4.60
2023-05-10T21:19:07.626Z,4.50
2023-05-10T21:21:34.650Z,4.25
2023-05-10T21:24:01.345Z,5.00
2023-05-10T21:26:28.690Z,4.60
2023-05-10T21:28:55.545Z,4.78
2023-05-10T21:31:22.150Z,4.95
2023-05-10T21:33:48.806Z,4.70
2023-05-10T21:36:15.441Z,4.50
2023-05-10T21:38:44.400Z,5.07
2023-05-10T21:41:11.118Z,5.63
2023-05-10T21:43:37.882Z,5.97
2023-05-10T21:46:04.801Z,5.93
2023-05-10T21:48:31.458Z,6.07
2023-05-10T21:50:58.094Z,5.20
2023-05-10T21:53:24.686Z,6.45
2023-05-10T21:55:51.286Z,5.65
2023-05-10T21:58:18.007Z,5.90
2023-05-10T22:00:44.584Z,6.20
2023-05-10T22:03:11.382Z,5.22
2023-05-10T22:05:38.798Z,5.80
2023-05-10T22:08:08.451Z,6.47
2023-05-10T22:10:35.049Z,5.72
2023-05-10T22:13:01.664Z,5.90
2023-05-10T22:15:28.309Z,5.55
2023-05-10T22:17:54.930Z,6.47
2023-05-10T22:20:22.128Z,6.70
2023-05-10T22:22:48.951Z,6.35
2023-05-10T22:25:16.050Z,7.68
2023-05-10T22:27:42.616Z,7.57
2023-05-10T22:30:09.604Z,6.90
2023-05-10T22:32:36.284Z,6.25
2023-05-10T22:35:03.411Z,6.93
2023-05-10T22:37:30.077Z,5.70
2023-05-10T22:39:56.696Z,5.68
2023-05-10T22:42:23.289Z,8.18
2023-05-10T22:44:49.834Z,6.35
2023-05-10T22:47:16.723Z,5.43
2023-05-10T22:49:43.314Z,4.90
2023-05-10T22:52:10.857Z,5.28
2023-05-10T22:54:37.446Z,5.40
2023-05-10T22:57:04.575Z,5.40
2023-05-10T22:59:31.466Z,7.50
2023-05-10T23:01:58.083Z,6.55
2023-05-10T23:04:24.874Z,6.72
2023-05-10T23:06:51.564Z,6.70
2023-05-10T23:09:18.296Z,6.80
2023-05-10T23:11:44.955Z,6.57
2023-05-10T23:14:11.895Z,6.35
2023-05-10T23:16:38.549Z,6.03
2023-05-10T23:19:05.409Z,5.60
2023-05-10T23:21:32.302Z,6.72
2023-05-10T23:23:59.051Z,6.20
2023-05-10T23:26:25.723Z,5.10
2023-05-10T23:28:52.393Z,5.28
2023-05-10T23:31:19.044Z,4.95
2023-05-10T23:33:45.632Z,5.47
2023-05-10T23:36:12.488Z,5.80
2023-05-10T23:38:39.487Z,6.57
2023-05-10T23:41:06.266Z,5.68
2023-05-10T23:43:32.860Z,6.45
2023-05-10T23:45:59.596Z,7.32
2023-05-10T23:48:26.344Z,7.15
2023-05-10T23:50:53.223Z,7.18
2023-05-10T23:53:19.825Z,7.60
2023-05-10T23:55:46.450Z,7.60
2023-05-10T23:58:13.108Z,7.93
